Logo AVAMET
Benvolgut visitant, si us plau, ingressa Recuperar contrasenya
AVAMET paisatges
Union Alcoyana

Xàbia Xàbia Històrica

Dades diàries. Acumulats / Últims 30 dies disponibles

Data Temperatura (°C) Humitat rel. (%) Pressió rel. (hPa) Vent (km/h) Precipitació
Mínima Mitjana Màxima Amplitud
tèrmica
Mínima Mitjana Màxima Mínima Mitjana Màxima Predom. Mitjana Ràfega
màxima
Total
(mm)
Índex-n
Mínima Mitjana Màxima Mínima Mitjana Màxima n
0 a 1
P0 max
mm 5'
Dades mensuals acumulades fins l'últim dia disponible
07/2021 19,7 22,6 25,6 25,7 25,3 29,3 35,7 16,0 33 74 94 1.006 1.015 1.023   8,9 41,8 0,0
Dades anuals acumulades fins l'últim dia disponible
2021 3,8 14,6 25,6 17,4 8,9 20,5 35,7 31,9 24 74 96 1.001 1.017 1.036   9,4 103,0 420,8
Últims 30 dies disponibles
25-07-2021 24,9     26,4     28,4 3,5 73 84 91 1.008 1.009 1.011 S 10,4 32,2 0,0
24-07-2021 24,6     27,7     32,3 7,7 59 79 90 1.006 1.008 1.010 NNW 7,7 35,4 0,0
23-07-2021 25,6     28,1     31,3 5,7 39 61 83 1.009 1.012 1.015 SW 11,1 38,6 0,0
22-07-2021 22,4     27,2     32,0 9,6 33 68 90 1.014 1.017 1.018 W 7,1 25,7 0,0
21-07-2021 22,5     26,1     30,2 7,7 63 78 88 1.016 1.017 1.018 SE 6,8 27,4 0,0
20-07-2021 23,8     26,6     30,0 6,2 46 64 88 1.013 1.014 1.016 SW 11,7 40,2 0,0
19-07-2021 22,3     25,7     29,8 7,5 50 75 90 1.012 1.013 1.014 E 8,0 30,6 0,0
18-07-2021 22,3     25,6     29,8 7,5 43 74 86 1.011 1.013 1.016 SW 9,8 40,2 0,0
17-07-2021 21,7     24,9     28,1 6,4 64 78 86 1.015 1.017 1.018 WSW 7,9 29,0 0,0
16-07-2021 20,8     24,3     27,9 7,1 61 74 84 1.015 1.018 1.019 SW 10,3 41,8 0,0
15-07-2021 21,1     23,4     25,3 4,2 68 75 80 1.018 1.018 1.019 ENE 7,2 30,6 0,0
14-07-2021 20,3     23,6     25,4 5,1 61 68 78 1.017 1.018 1.019 E 8,4 30,6 0,0
13-07-2021 22,0     23,9     26,2 4,2 48 57 82 1.013 1.016 1.018 ENE 11,6 37,0 0,0
12-07-2021 24,4     27,9     35,7 11,3 44 77 91 1.007 1.009 1.013 WSW 7,9 38,6 0,0
11-07-2021 22,6     25,3     28,3 5,7 63 81 88 1.011 1.015 1.017 E 7,9 30,6 0,0
10-07-2021 20,8     25,1     29,7 8,9 44 71 86 1.015 1.017 1.020 W 8,5 30,6 0,0
09-07-2021 23,1     24,7     26,6 3,5 65 77 87 1.018 1.021 1.023 E 7,1 27,4 0,0
08-07-2021 23,2     24,7     25,9 2,7 58 75 89 1.017 1.020 1.022 ENE 9,2 33,8 0,0
07-07-2021 24,3     25,8     28,2 3,9 61 75 87 1.012 1.014 1.017 NNW 10,1 37,0 0,0
06-07-2021 22,8     27,8     34,0 11,2 35 71 94 1.009 1.010 1.011 E 6,0 25,7 0,0
05-07-2021 24,4     26,2     29,6 5,2 66 79 89 1.009 1.013 1.015 SW 13,0 41,8 0,0
04-07-2021 23,1     26,5     30,2 7,1 55 77 91 1.012 1.013 1.014 SW 8,7 30,6 0,0
03-07-2021 22,7     25,8     32,3 9,6 51 79 90 1.012 1.014 1.015 SW 7,2 29,0 0,0
02-07-2021 20,8     24,2     27,1 6,3 70 82 92 1.014 1.016 1.017 SW 9,8 38,6 0,0
01-07-2021 19,7     24,2     28,2 8,5 55 78 91 1.015 1.017 1.018 SW 9,5 33,8 0,0
30-06-2021 21,7     23,9     27,2 5,5 68 81 89 1.016 1.017 1.018 SSO 8,3 30,6 0,0
29-06-2021 21,9     23,8     25,7 3,8 78 84 91 1.014 1.015 1.017 NNW 9,7 41,8 0,0
28-06-2021 20,7     23,7     26,8 6,1 66 81 91 1.011 1.013 1.014 E 8,0 32,2 0,0
27-06-2021 20,1     23,7     26,2 6,1 67 76 83 1.010 1.013 1.015 SW 12,1 43,5 0,0
26-06-2021 19,6     23,8     27,4 7,8 46 66 83 1.014 1.016 1.018 SW 10,5 37,0 0,0
Últims 13 mesos disponibles
06/2021 17,6 20,4 23,2 23,1 21,2 26,0 29,8 12,2 53 75 90 1.010 1.016 1.021 NNW 8,6 45,1 7,4
05/2021 13,4 16,1 19,9 19,2 17,4 22,8 31,2 17,8 46 73 90 1.009 1.016 1.023 NNW 10,0 61,2 58,6
04/2021 8,7 12,5 14,7 15,0 13,7 17,6 22,9 14,2 63 80 93 1.005 1.015 1.025 NNW 8,6 51,5 62,8
03/2021 7,2 11,0 13,7 13,4 11,5 16,3 22,1 14,9 54 79 93 1.013 1.022 1.029 NNW 10,1 56,3 141,0
02/2021 8,5 12,0 17,6 14,5 14,5 17,4 23,5 15,0 46 72 88 1.002 1.018 1.034 WNW 9,1 74,0 0,0
01/2021 3,8 9,3 17,2 12,5 8,9 15,8 26,4 22,6 43 63 92 1.005 1.016 1.027 WNW 10,3 103,0 151,0
12/2020 5,5 10,5 17,1 13,7 13,1 17,1 22,8 17,3 36 61 86 998 1.014 1.027 WNW 10,4 75,6 4,0
11/2020 9,6 13,8 18,9 16,7 14,7 19,7 24,2 14,6 71 82 91 1.005 1.021 1.029 W 7,0 74,0 203,4
10/2020 12,3 15,9 18,9 19,6 19,1 23,2 29,5 17,2 42 63 84 998 1.017 1.025 W 8,5 70,8 9,2
09/2020 16,8 20,5 24,0 23,7 23,4 27,0 30,7 13,9 39 68 81 1.011 1.017 1.023 W 7,8 57,9 6,0
08/2020 17,9 23,8 26,4 26,9 24,3 30,3 34,0 16,1 54 72 85 1.004 1.014 1.019 SW 8,8 66,0 46,0
07/2020 21,4 23,6 25,7 26,2 27,5 29,2 32,1 10,7 61 74 83 1.011 1.016 1.021 NNW 9,6 46,7 2,2
06/2020 15,5 19,8 22,7 23,0 20,5 26,5 29,7 14,2 44 73 85 1.005 1.014 1.021 SW 9,2 54,7 30,2
Tots els anys disponibles
2020 5,5 16,0 26,4 19,2 12,9 22,6 34,0 28,5 34 71 94 998 1.018 1.033 W 8,6 96,6 549,0
2019 4,9 15,5 26,3 18,8 11,4 22,3 35,1 30,2 19 68 92 994 1.017 1.033 W 8,5 75,6 882,9
2018 4,4 15,9 27,3 19,1 8,2 22,9 36,9 32,5 34 78 93 998 1.017 1.028 W 8,2 72,2 675,6
2017 1,1 15,8 27,2 19,3 9,4 23,0 35,5 34,4 63 66 67 1.017 1.017 1.018 8,0 80,0 486,2
2016 4,4 16,1 26,7 19,5 12,4 22,9 38,0 33,6 55 64 78 1.014 1.018 1.025 8,5 67,0 367,4
Temperatura (°C)
Humitat relativa (%)
Velocitat del vent i ràfega màxima (km/h)
Direcció del vent (°)
Pressió (hPa)
Precipitació (mm)
Nota sobre les dades: s'avisa a l'usuari de la provisionalitat i no oficialitat d'aquestes dades
Logo AVAMET blanc
Web allotjada a Sollutia
Llicència de Creative CommonsLa web d'AVAMET i els seus continguts estan subjectes a una llicència de
Reconeixement - No Comercial - Compartir igual
Avís legal - Política de privacitat - Política de cookies
NOVES ESTACIONS: la Mata (Ajuntament/Soci), l'Alcora Araia (Soci), la Vila Joiosa - Salomó del Carabassot (Soci), Ares del Maestrat - la Vall de Catí (Soci), Alpuente - la Torre (Soci), Gaibiel (Ajuntament/Soci), Almenara - Comunitat de Regants (Soci), Gandia - Camí de la mar (Soci) - - -